Time;durP1;ratioP1;P1;durP2;ratioP2;P2;SDS_P1;SDS_P2;PMS_P1;PMS_P2;Temp;Humidity;BMP_temperature;BMP_pressure;BME280_temperature;BME280_humidity;BME280_pressure;Samples;Min_cycle;Max_cycle;Signal;HPM_P1;HPM_P2
2022/04/14 00:01:40;;;;;;;7.77;5.70;;;11.60;98.70;;;;;;5112045;28;20710;-85
2022/04/14 00:04:06;;;;;;;8.60;4.90;;;11.40;87.50;;;;;;5111643;28;20722;-85
2022/04/14 00:06:33;;;;;;;6.73;5.40;;;11.20;94.70;;;;;;5111514;28;20643;-85
2022/04/14 00:09:01;;;;;;;6.83;5.20;;;11.40;98.00;;;;;;5112142;28;20626;-85
2022/04/14 00:11:29;;;;;;;8.20;4.87;;;11.30;94.50;;;;;;5111669;28;20647;-85
2022/04/14 00:13:58;;;;;;;7.10;4.73;;;11.40;88.10;;;;;;5111958;28;20643;-85
2022/04/14 00:16:26;;;;;;;5.03;4.53;;;11.40;98.60;;;;;;5111133;28;21054;-85
2022/04/14 00:18:54;;;;;;;6.83;6.00;;;11.30;98.10;;;;;;5111421;28;20702;-85
2022/04/14 00:21:22;;;;;;;12.40;5.50;;;11.20;94.00;;;;;;5111500;28;20615;-85
2022/04/14 00:23:50;;;;;;;6.60;6.00;;;11.40;86.60;;;;;;5112125;28;20608;-85
2022/04/14 00:26:18;;;;;;;8.90;6.53;;;11.80;86.70;;;;;;5110976;28;20607;-85
2022/04/14 00:28:47;;;;;;;5.87;5.37;;;;;;;;;;5112041;28;20607;-85
2022/04/14 00:31:15;;;;;;;6.60;5.20;;;11.30;94.40;;;;;;5111768;28;20650;-85
2022/04/14 00:33:42;;;;;;;9.63;5.30;;;11.30;95.70;;;;;;5111793;28;20635;-85
2022/04/14 00:36:10;;;;;;;6.83;5.13;;;11.60;99.00;;;;;;5111386;28;21157;-85
2022/04/14 00:38:37;;;;;;;6.40;5.80;;;11.20;88.60;;;;;;5110697;28;20596;-85
2022/04/14 00:41:04;;;;;;;6.00;5.07;;;11.10;97.80;;;;;;5111593;28;21018;-85
2022/04/14 00:43:31;;;;;;;6.07;5.47;;;11.10;89.20;;;;;;5112520;28;20973;-85
2022/04/14 00:46:00;;;;;;;6.00;5.10;;;11.10;93.90;;;;;;5110033;28;20615;-85
2022/04/14 00:48:28;;;;;;;7.23;4.93;;;11.10;97.50;;;;;;5111476;28;20676;-85
2022/04/14 00:50:55;;;;;;;6.30;5.70;;;11.20;87.30;;;;;;5110969;27;20715;-85
2022/04/14 00:53:24;;;;;;;6.20;5.37;;;10.90;98.20;;;;;;5111445;28;21173;-85
2022/04/14 00:55:52;;;;;;;5.73;5.17;;;11.10;88.60;;;;;;5110071;28;20600;-85
2022/04/14 00:58:19;;;;;;;8.70;5.53;;;11.10;93.60;;;;;;5110566;28;20704;-85
2022/04/14 01:00:46;;;;;;;10.83;6.37;;;11.00;89.40;;;;;;5110990;28;21084;-85
2022/04/14 01:03:13;;;;;;;6.83;5.50;;;10.90;90.20;;;;;;5110075;28;21153;-85
2022/04/14 01:05:40;;;;;;;6.03;5.43;;;11.20;96.70;;;;;;5109975;28;20615;-85
2022/04/14 01:08:08;;;;;;;8.47;6.10;;;11.00;90.60;;;;;;5110817;27;20619;-85
2022/04/14 01:10:40;;;;;;;6.10;5.50;;;11.00;90.50;;;;;;5110035;28;20638;-85
2022/04/14 01:13:10;;;;;;;7.83;5.70;;;10.80;95.80;;;;;;5110426;28;21405;-85
2022/04/14 01:15:39;;;;;;;8.87;6.07;;;10.90;91.00;;;;;;5109581;28;20616;-85
2022/04/14 01:18:06;;;;;;;7.87;6.53;;;10.90;90.50;;;;;;5110591;28;20657;-85
2022/04/14 01:20:34;;;;;;;8.37;7.00;;;10.90;90.70;;;;;;5110526;28;20644;-85
2022/04/14 01:23:04;;;;;;;5.93;5.33;;;10.90;90.50;;;;;;5110469;28;21299;-85
2022/04/14 01:25:35;;;;;;;8.37;6.97;;;11.20;95.10;;;;;;5109193;28;20610;-85
2022/04/14 01:28:03;;;;;;;6.60;5.97;;;10.90;90.60;;;;;;5110393;27;20607;-85
2022/04/14 01:30:31;;;;;;;7.20;5.63;;;10.90;90.60;;;;;;5110283;28;20629;-85
2022/04/14 01:32:58;;;;;;;10.57;6.17;;;10.90;91.00;;;;;;5110290;28;20711;-85
2022/04/14 01:35:26;;;;;;;9.23;5.60;;;10.80;91.20;;;;;;5109572;28;20611;-85
2022/04/14 01:37:53;;;;;;;7.20;5.50;;;10.70;93.40;;;;;;5108698;28;21054;-85
2022/04/14 01:40:20;;;;;;;6.20;5.57;;;10.80;90.90;;;;;;5109910;28;20952;-85
2022/04/14 01:42:50;;;;;;;6.47;4.80;;;10.70;91.30;;;;;;5110114;28;20649;-85
2022/04/14 01:45:16;;;;;;;6.37;5.17;;;10.70;91.50;;;;;;5109525;28;20606;-86
2022/04/14 01:47:45;;;;;;;14.10;6.80;;;10.70;91.70;;;;;;5110037;28;21147;-85
2022/04/14 01:50:15;;;;;;;8.50;5.80;;;10.70;98.80;;;;;;5110419;28;20592;-85
2022/04/14 01:52:44;;;;;;;7.50;6.77;;;10.60;99.90;;;;;;5109510;28;20687;-85
2022/04/14 01:55:11;;;;;;;7.90;4.97;;;10.70;91.80;;;;;;5109610;28;20632;-86
2022/04/14 01:57:38;;;;;;;6.20;5.57;;;10.60;91.80;;;;;;5109634;28;20672;-85
2022/04/14 02:00:09;;;;;;;6.50;5.90;;;10.70;91.70;;;;;;5109630;28;20631;-85
2022/04/14 02:02:36;;;;;;;6.57;5.00;;;10.60;92.10;;;;;;5109823;28;20611;-85
2022/04/14 02:05:03;;;;;;;8.60;5.83;;;10.50;92.60;;;;;;5108849;28;20668;-85
2022/04/14 02:07:30;;;;;;;7.03;5.00;;;10.40;92.50;;;;;;5109856;28;20696;-85
2022/04/14 02:09:57;;;;;;;5.57;4.90;;;10.40;92.60;;;;;;5109811;28;20707;-85
2022/04/14 02:12:25;;;;;;;5.60;5.03;;;10.50;92.30;;;;;;5109754;28;21061;-85
2022/04/14 02:14:53;;;;;;;5.33;4.83;;;10.50;92.10;;;;;;5109729;28;20864;-85
2022/04/14 02:17:21;;;;;;;9.10;5.67;;;10.50;92.40;;;;;;5109467;28;20723;-85
2022/04/14 02:19:48;;;;;;;9.43;5.53;;;10.50;98.10;;;;;;5109203;28;20719;-85
2022/04/14 02:22:15;;;;;;;14.20;5.20;;;10.50;92.30;;;;;;5108865;28;20619;-85
2022/04/14 02:24:42;;;;;;;6.23;4.80;;;10.50;92.50;;;;;;5109330;28;20636;-85
2022/04/14 02:27:09;;;;;;;5.20;4.70;;;10.40;92.70;;;;;;5108695;28;20599;-85
2022/04/14 02:29:35;;;;;;;5.20;4.73;;;10.50;92.70;;;;;;5109854;28;20628;-85
2022/04/14 02:32:02;;;;;;;9.53;4.37;;;10.40;92.90;;;;;;5109222;28;20742;-84
2022/04/14 02:34:31;;;;;;;5.37;4.87;;;10.50;99.10;;;;;;5109300;28;20706;-84
2022/04/14 02:36:58;;;;;;;5.80;5.03;;;10.30;93.30;;;;;;5107439;28;20727;-85
2022/04/14 02:39:25;;;;;;;5.83;5.03;;;10.70;93.60;;;;;;5109209;28;20688;-85
2022/04/14 02:41:52;;;;;;;7.50;5.83;;;10.30;93.50;;;;;;5109192;28;20701;-85
2022/04/14 02:44:18;;;;;;;7.60;4.90;;;10.20;93.70;;;;;;5108953;28;21201;-85
2022/04/14 02:46:45;;;;;;;7.47;6.70;;;10.40;95.40;;;;;;5107863;28;20673;-85
2022/04/14 02:49:12;;;;;;;6.93;5.90;;;10.10;94.00;;;;;;5108990;28;20702;-84
2022/04/14 02:51:40;;;;;;;9.57;5.43;;;10.30;93.80;;;;;;5108835;28;20687;-85
2022/04/14 02:54:07;;;;;;;8.40;6.00;;;10.40;94.00;;;;;;5109234;28;21049;-84
2022/04/14 02:56:34;;;;;;;7.30;6.63;;;10.40;93.70;;;;;;5108099;28;20604;-85
2022/04/14 02:59:01;;;;;;;7.43;6.10;;;10.30;94.00;;;;;;5108748;28;21071;-85
2022/04/14 03:01:28;;;;;;;9.57;6.47;;;10.10;99.90;;;;;;5108858;28;20720;-85
2022/04/14 03:03:54;;;;;;;10.10;7.07;;;10.40;94.30;;;;;;5108650;28;20680;-85
2022/04/14 03:06:21;;;;;;;8.07;6.50;;;10.50;94.90;;;;;;5108426;28;20714;-85
2022/04/14 03:08:49;;;;;;;10.07;7.77;;;10.50;95.20;;;;;;5108920;28;20746;-84
2022/04/14 03:11:18;;;;;;;11.70;7.80;;;10.70;95.60;;;;;;5109479;28;21013;-85
2022/04/14 03:13:45;;;;;;;10.57;8.43;;;10.70;95.60;;;;;;5108675;28;20677;-85
2022/04/14 03:16:13;;;;;;;12.23;7.37;;;10.70;95.70;;;;;;5108910;28;20643;-85
2022/04/14 03:18:40;;;;;;;15.73;8.27;;;10.70;95.80;;;;;;5108621;28;20641;-84
2022/04/14 03:21:07;;;;;;;9.13;7.97;;;10.50;96.00;;;;;;5108353;28;21188;-85
2022/04/14 03:23:34;;;;;;;9.67;8.10;;;;;;;;;;5108580;28;20622;-85
2022/04/14 03:26:03;;;;;;;15.10;9.20;;;10.60;96.10;;;;;;5107940;28;20759;-85
2022/04/14 03:28:30;;;;;;;9.13;8.23;;;10.60;98.00;;;;;;5107958;28;21103;-84
2022/04/14 03:30:57;;;;;;;14.30;9.93;;;10.50;96.90;;;;;;5108359;28;21238;-84
2022/04/14 03:33:24;;;;;;;10.93;9.77;;;10.60;97.60;;;;;;5110875;28;20604;-84
2022/04/14 03:35:51;;;;;;;11.93;9.67;;;10.60;97.50;;;;;;5111720;28;21032;-84
2022/04/14 03:38:18;;;;;;;12.53;9.93;;;10.60;97.10;;;;;;5111284;28;20702;-85
2022/04/14 03:40:44;;;;;;;14.87;11.07;;;10.70;97.10;;;;;;5112227;28;20723;-85
2022/04/14 03:43:13;;;;;;;16.10;11.30;;;10.70;97.20;;;;;;5112122;28;20691;-85
2022/04/14 03:45:39;;;;;;;20.80;11.57;;;10.70;97.40;;;;;;5111965;28;20751;-85
2022/04/14 03:48:06;;;;;;;15.43;10.70;;;10.70;97.60;;;;;;5112362;28;20611;-84
2022/04/14 03:50:33;;;;;;;13.40;9.90;;;10.70;97.80;;;;;;5112043;28;20959;-85
2022/04/14 03:53:00;;;;;;;15.90;10.53;;;10.60;98.20;;;;;;5112457;28;20663;-85
2022/04/14 03:55:27;;;;;;;18.27;13.10;;;10.60;98.70;;;;;;5110283;28;20736;-84
2022/04/14 03:57:54;;;;;;;16.47;12.73;;;10.50;99.10;;;;;;5112344;28;20582;-84
2022/04/14 04:00:22;;;;;;;13.73;12.43;;;10.50;99.80;;;;;;5111816;28;20730;-85
2022/04/14 04:02:49;;;;;;;18.93;13.40;;;10.50;99.90;;;;;;5112177;28;20620;-85
2022/04/14 04:05:16;;;;;;;17.73;14.37;;;10.40;99.90;;;;;;5111455;28;20684;-84
2022/04/14 04:07:43;;;;;;;17.17;15.37;;;10.40;99.90;;;;;;5111909;28;20623;-85
2022/04/14 04:10:10;;;;;;;23.70;15.80;;;10.30;99.90;;;;;;5111436;28;20610;-85
2022/04/14 04:12:37;;;;;;;22.73;14.40;;;10.50;99.90;;;;;;5111847;28;20687;-85
2022/04/14 04:15:04;;;;;;;21.00;16.73;;;10.50;99.90;;;;;;5111302;28;21269;-85
2022/04/14 04:17:33;;;;;;;22.77;16.87;;;10.50;99.90;;;;;;5111649;27;21172;-85
2022/04/14 04:20:01;;;;;;;21.30;17.23;;;10.60;99.90;;;;;;5111748;28;20647;-85
2022/04/14 04:22:28;;;;;;;22.70;16.50;;;10.60;99.90;;;;;;5111500;28;20620;-84
2022/04/14 04:24:57;;;;;;;24.30;16.87;;;10.70;99.90;;;;;;5111996;28;21037;-84
2022/04/14 04:27:24;;;;;;;24.70;17.83;;;10.60;99.90;;;;;;5111004;28;20616;-84
2022/04/14 04:29:51;;;;;;;23.67;16.80;;;10.60;99.90;;;;;;5111379;27;20710;-85
2022/04/14 04:32:17;;;;;;;21.27;16.47;;;10.70;99.90;;;;;;5111397;28;20647;-85
2022/04/14 04:34:46;;;;;;;23.93;16.77;;;10.70;99.90;;;;;;5111703;28;20710;-85
2022/04/14 04:37:12;;;;;;;21.97;16.20;;;10.70;99.90;;;;;;5109148;28;20684;-84
2022/04/14 04:39:39;;;;;;;19.47;15.30;;;10.60;99.90;;;;;;5111409;28;20719;-85
2022/04/14 04:42:07;;;;;;;22.73;17.03;;;10.60;99.90;;;;;;5111146;28;20636;-85
2022/04/14 04:44:34;;;;;;;25.00;15.77;;;10.60;99.90;;;;;;5110606;28;20746;-85
2022/04/14 04:47:01;;;;;;;19.47;15.50;;;11.20;99.90;;;;;;5110765;28;20667;-84
2022/04/14 04:49:27;;;;;;;20.00;16.97;;;10.50;99.90;;;;;;5110798;28;20630;-86
2022/04/14 04:51:56;;;;;;;21.90;15.93;;;10.50;99.90;;;;;;5110824;28;20663;-85
2022/04/14 04:54:23;;;;;;;21.37;15.53;;;10.50;99.90;;;;;;5111175;28;20622;-85
2022/04/14 04:56:49;;;;;;;19.40;16.50;;;10.50;99.90;;;;;;5110589;28;20658;-85
2022/04/14 04:59:16;;;;;;;18.63;16.10;;;10.50;99.90;;;;;;5110770;28;20684;-85
2022/04/14 05:01:43;;;;;;;21.00;15.90;;;10.50;99.90;;;;;;5110727;28;20619;-85
2022/04/14 05:04:11;;;;;;;21.13;17.40;;;10.60;99.90;;;;;;5110180;28;20706;-84
2022/04/14 05:06:38;;;;;;;23.93;16.30;;;10.50;99.90;;;;;;5110390;28;20623;-85
2022/04/14 05:09:06;;;;;;;22.50;17.30;;;10.50;99.90;;;;;;5111073;27;20614;-85
2022/04/14 05:11:34;;;;;;;29.27;18.27;;;10.50;99.90;;;;;;5110570;28;20668;-85
2022/04/14 05:14:01;;;;;;;21.20;17.10;;;10.50;99.90;;;;;;5110581;28;21222;-85
2022/04/14 05:16:28;;;;;;;21.53;18.40;;;10.50;99.90;;;;;;5109818;28;21181;-84
2022/04/14 05:18:55;;;;;;;24.40;18.77;;;10.50;99.90;;;;;;5110519;28;20706;-85
2022/04/14 05:21:22;;;;;;;21.77;18.23;;;10.50;99.90;;;;;;5110891;28;20604;-84
2022/04/14 05:23:49;;;;;;;24.47;17.70;;;10.60;99.90;;;;;;5110679;28;20644;-85
2022/04/14 05:26:17;;;;;;;24.33;17.27;;;10.60;99.90;;;;;;5109920;28;20722;-85
2022/04/14 05:28:44;;;;;;;21.70;17.80;;;10.60;99.90;;;;;;5110199;28;20638;-85
2022/04/14 05:31:11;;;;;;;24.27;18.83;;;10.70;99.90;;;;;;5110169;28;20619;-85
2022/04/14 05:33:38;;;;;;;25.53;19.37;;;10.80;99.90;;;;;;5110710;28;20706;-84
2022/04/14 05:36:06;;;;;;;27.90;20.30;;;10.70;99.90;;;;;;5109610;28;20967;-85
2022/04/14 05:38:33;;;;;;;26.40;22.87;;;10.80;99.90;;;;;;5109461;28;20981;-85
2022/04/14 05:41:00;;;;;;;29.80;21.67;;;10.90;99.90;;;;;;5110464;28;20722;-85
2022/04/14 05:43:29;;;;;;;31.57;21.90;;;10.90;99.90;;;;;;5110824;28;20612;-84
2022/04/14 05:45:57;;;;;;;29.47;22.33;;;11.10;99.90;;;;;;5109028;28;21275;-85
2022/04/14 05:48:24;;;;;;;25.80;21.73;;;11.10;99.90;;;;;;5110451;28;20661;-85
2022/04/14 05:50:51;;;;;;;30.57;22.53;;;11.20;99.90;;;;;;5109985;28;21177;-85
2022/04/14 05:53:24;;;;;;;33.60;25.17;;;11.30;99.90;;;;;;5110859;28;20643;-85
2022/04/14 05:55:51;;;;;;;31.53;24.60;;;11.40;99.90;;;;;;5110848;28;20741;-85
2022/04/14 05:58:18;;;;;;;33.03;25.37;;;11.40;99.90;;;;;;5109940;28;20992;-84
2022/04/14 06:00:47;;;;;;;32.10;26.10;;;11.50;99.90;;;;;;5109822;28;20619;-85
2022/04/14 06:03:14;;;;;;;35.83;26.23;;;11.60;99.90;;;;;;5109761;28;20624;-85
2022/04/14 06:05:41;;;;;;;35.97;26.10;;;11.30;99.90;;;;;;5108907;28;20624;-85
2022/04/14 06:08:08;;;;;;;39.67;27.40;;;11.70;99.90;;;;;;5109618;28;20622;-84
2022/04/14 06:10:36;;;;;;;34.70;26.10;;;11.70;99.90;;;;;;5109715;28;20695;-84
2022/04/14 06:13:03;;;;;;;39.03;27.57;;;11.90;99.90;;;;;;5108843;28;20798;-85
2022/04/14 06:15:31;;;;;;;40.30;24.80;;;12.00;99.90;;;;;;5108633;28;20615;-85
2022/04/14 06:18:00;;;;;;;35.20;26.93;;;12.00;99.90;;;;;;5109644;27;20611;-85
2022/04/14 06:20:27;;;;;;;32.67;24.97;;;12.10;99.90;;;;;;5109494;28;20635;-84
2022/04/14 06:22:55;;;;;;;33.10;25.73;;;12.10;99.90;;;;;;5109098;28;20635;-84
2022/04/14 06:25:23;;;;;;;30.77;25.83;;;12.20;99.90;;;;;;5108292;28;20720;-84
2022/04/14 06:27:52;;;;;;;34.03;23.80;;;12.20;99.90;;;;;;5109359;28;20619;-84
2022/04/14 06:30:20;;;;;;;31.73;24.20;;;12.30;99.90;;;;;;5109088;28;20643;-84
2022/04/14 06:32:56;;;;;;;36.27;24.83;;;12.30;99.90;;;;;;5109527;28;20758;-84
2022/04/14 06:35:24;;;;;;;28.27;23.70;;;12.50;99.90;;;;;;5108388;28;20622;-84
2022/04/14 06:37:51;;;;;;;32.10;24.63;;;12.60;99.90;;;;;;5107355;28;20685;-84
2022/04/14 06:40:18;;;;;;;30.30;23.77;;;12.60;99.90;;;;;;5108766;28;21175;-85
2022/04/14 06:42:45;;;;;;;29.03;23.57;;;12.70;99.90;;;;;;5109194;28;20614;-84
2022/04/14 06:45:12;;;;;;;28.80;23.40;;;12.80;99.90;;;;;;5108276;28;20719;-85
2022/04/14 06:47:39;;;;;;;30.33;23.50;;;12.80;99.90;;;;;;5108861;27;20774;-84
2022/04/14 06:50:06;;;;;;;32.20;22.67;;;12.90;99.90;;;;;;5108887;28;20669;-85
2022/04/14 06:52:35;;;;;;;26.27;22.87;;;12.90;99.90;;;;;;5108386;28;20648;-84
2022/04/14 06:55:02;;;;;;;25.60;22.70;;;13.10;99.90;;;;;;5108906;28;20662;-84
2022/04/14 06:57:29;;;;;;;23.23;20.83;;;13.20;99.90;;;;;;5108583;28;20606;-84
2022/04/14 06:59:55;;;;;;;27.00;22.10;;;13.20;99.90;;;;;;5108588;28;20671;-85
2022/04/14 07:02:22;;;;;;;27.70;22.23;;;13.30;99.90;;;;;;5108626;28;20614;-84
2022/04/14 07:04:49;;;;;;;27.00;22.93;;;13.40;99.90;;;;;;5108356;28;20636;-84
2022/04/14 07:07:16;;;;;;;25.50;19.87;;;13.30;99.90;;;;;;5106971;28;20682;-84
2022/04/14 07:09:45;;;;;;;29.73;20.77;;;13.40;99.90;;;;;;5108463;28;20633;-84
2022/04/14 07:12:13;;;;;;;25.00;21.07;;;13.50;99.90;;;;;;5108580;28;20623;-84
2022/04/14 07:14:40;;;;;;;26.43;21.57;;;13.60;99.90;;;;;;5108433;28;20625;-84
2022/04/14 07:17:07;;;;;;;28.63;19.70;;;13.70;99.90;;;;;;5107869;28;20621;-84
2022/04/14 07:19:34;;;;;;;27.90;20.30;;;13.80;99.90;;;;;;5107986;28;20658;-84
2022/04/14 07:22:02;;;;;;;27.30;20.77;;;13.90;99.90;;;;;;5108532;28;21022;-84
2022/04/14 07:24:28;;;;;;;24.00;20.77;;;13.90;99.90;;;;;;5108477;28;20946;-84
2022/04/14 07:26:57;;;;;;;25.70;20.37;;;14.00;99.90;;;;;;5107880;28;20675;-84
2022/04/14 07:29:24;;;;;;;27.83;19.80;;;14.10;99.90;;;;;;5108459;28;20714;-84
2022/04/14 07:31:52;;;;;;;23.80;19.63;;;14.20;99.90;;;;;;5108217;28;20646;-84
2022/04/14 07:34:18;;;;;;;24.70;20.00;;;14.30;99.90;;;;;;5107950;28;20662;-84
2022/04/14 07:36:45;;;;;;;20.67;18.50;;;14.40;99.80;;;;;;5106758;28;21186;-84
2022/04/14 07:39:12;;;;;;;21.27;18.30;;;14.50;99.60;;;;;;5108589;28;20614;-84
2022/04/14 07:41:39;;;;;;;20.50;18.33;;;14.70;99.70;;;;;;5108270;28;20627;-84
2022/04/14 07:44:08;;;;;;;23.90;20.03;;;14.80;99.20;;;;;;5108380;28;20641;-85
2022/04/14 07:46:37;;;;;;;27.27;20.67;;;14.80;98.70;;;;;;5107305;28;20665;-85
2022/04/14 07:49:04;;;;;;;21.70;18.20;;;14.80;98.70;;;;;;5108570;28;21099;-84
2022/04/14 07:51:31;;;;;;;22.90;19.13;;;14.90;98.40;;;;;;5108484;28;20612;-84
2022/04/14 07:53:58;;;;;;;20.63;18.43;;;14.90;98.40;;;;;;5108341;28;20800;-84
2022/04/14 07:56:25;;;;;;;22.70;18.83;;;15.00;98.70;;;;;;5107493;28;20627;-84
2022/04/14 07:58:52;;;;;;;24.43;19.60;;;15.00;98.40;;;;;;5108388;28;20624;-84
2022/04/14 08:01:20;;;;;;;23.97;18.00;;;15.10;98.20;;;;;;5107762;28;20694;-84
2022/04/14 08:03:47;;;;;;;20.53;17.67;;;15.10;97.60;;;;;;5108253;28;20623;-84
2022/04/14 08:06:14;;;;;;;20.97;18.40;;;15.20;97.50;;;;;;5107605;28;20619;-85
2022/04/14 08:08:41;;;;;;;19.53;17.13;;;15.40;97.10;;;;;;5108056;28;21110;-84
2022/04/14 08:11:10;;;;;;;21.57;17.43;;;15.50;97.40;;;;;;5108037;28;20620;-84
2022/04/14 08:13:38;;;;;;;26.43;18.10;;;15.50;96.60;;;;;;5108092;28;20659;-84
2022/04/14 08:16:06;;;;;;;21.67;17.17;;;15.80;98.90;;;;;;5107504;28;20628;-84
2022/04/14 08:18:36;;;;;;;21.00;18.77;;;15.90;98.10;;;;;;5108311;28;21160;-84
2022/04/14 08:21:04;;;;;;;22.40;17.27;;;15.90;96.20;;;;;;5111598;28;20629;-84
2022/04/14 08:23:31;;;;;;;26.43;17.40;;;16.10;96.30;;;;;;5112031;28;20618;-84
2022/04/14 08:25:59;;;;;;;17.93;16.03;;;16.20;96.30;;;;;;5111200;28;20630;-84
2022/04/14 08:28:26;;;;;;;21.57;16.37;;;16.50;95.90;;;;;;5111986;27;20733;-84
2022/04/14 08:30:54;;;;;;;19.70;16.20;;;16.40;95.90;;;;;;5111494;28;21026;-84
2022/04/14 08:33:24;;;;;;;18.50;15.53;;;16.50;95.80;;;;;;5111695;28;20643;-84
2022/04/14 08:35:55;;;;;;;21.97;16.20;;;16.60;95.70;;;;;;5110808;28;20721;-84
2022/04/14 08:38:22;;;;;;;17.97;15.20;;;16.70;95.30;;;;;;5110997;28;20693;-84
2022/04/14 08:40:57;;;;;;;21.60;16.33;;;16.70;95.20;;;;;;5110756;27;20618;-84
2022/04/14 08:43:33;;;;;;;19.93;15.13;;;16.70;94.90;;;;;;5111534;28;20900;-85
2022/04/14 08:46:02;;;;;;;18.87;16.90;;;16.90;95.00;;;;;;5110843;28;21293;-85
2022/04/14 08:48:29;;;;;;;21.83;15.77;;;16.90;95.20;;;;;;5111218;28;20625;-84
2022/04/14 08:50:57;;;;;;;18.90;16.17;;;16.80;93.80;;;;;;5111177;28;20614;-84
2022/04/14 08:53:26;;;;;;;19.03;16.77;;;16.60;96.80;;;;;;5110638;28;20726;-84
2022/04/14 08:55:56;;;;;;;20.23;15.10;;;16.60;93.90;;;;;;5110259;28;21198;-84
2022/04/14 08:58:26;;;;;;;17.30;15.60;;;16.80;93.90;;;;;;5111010;28;20640;-84
2022/04/14 09:00:54;;;;;;;17.37;14.63;;;16.90;93.40;;;;;;5111082;28;20831;-84
2022/04/14 09:03:22;;;;;;;18.80;15.50;;;17.10;93.30;;;;;;5110767;28;20634;-84
2022/04/14 09:05:51;;;;;;;20.30;17.00;;;17.10;92.90;;;;;;5109870;28;20632;-84
2022/04/14 09:08:19;;;;;;;19.83;17.83;;;17.00;92.80;;;;;;5111051;28;20619;-84
2022/04/14 09:10:46;;;;;;;19.20;16.40;;;17.40;93.10;;;;;;5110927;28;20757;-84
2022/04/14 09:13:14;;;;;;;17.80;15.90;;;17.70;96.20;;;;;;5110703;28;20643;-84
2022/04/14 09:15:41;;;;;;;19.57;16.40;;;17.60;93.20;;;;;;5110127;28;21196;-84
2022/04/14 09:18:08;;;;;;;19.97;16.53;;;17.50;93.20;;;;;;5110711;27;20620;-84
2022/04/14 09:20:37;;;;;;;19.57;16.93;;;17.60;93.40;;;;;;5110240;28;20616;-84
2022/04/14 09:23:21;;;;;;;23.03;18.47;;;17.90;92.90;;;;;;5110403;28;21250;-84
2022/04/14 09:25:50;;;;;;;24.03;17.50;;;18.00;92.50;;;;;;5110063;28;20630;-84
2022/04/14 09:28:19;;;;;;;17.93;15.23;;;18.10;92.40;;;;;;5110406;28;20616;-84
2022/04/14 09:31:00;;;;;;;18.97;16.07;;;18.40;92.20;;;;;;5109952;27;20630;-84
2022/04/14 09:33:27;;;;;;;18.57;16.30;;;18.50;91.40;;;;;;5110243;28;21263;-84
2022/04/14 09:36:13;;;;;;;20.43;16.80;;;18.40;91.50;;;;;;5110181;28;20623;-84
2022/04/14 09:38:56;;;;;;;18.83;16.63;;;18.10;91.00;;;;;;5110193;28;20619;-84
2022/04/14 09:41:37;;;;;;;20.57;16.10;;;18.10;91.50;;;;;;5109816;28;20727;-84
2022/04/14 09:44:08;;;;;;;19.13;17.10;;;18.10;91.90;;;;;;5110538;28;20616;-84
2022/04/14 09:46:36;;;;;;;21.07;17.23;;;18.30;91.60;;;;;;5109581;28;21039;-84
2022/04/14 09:49:08;;;;;;;16.93;15.13;;;18.30;90.80;;;;;;5109925;28;21095;-84
2022/04/14 09:51:36;;;;;;;18.03;15.93;;;18.40;91.10;;;;;;5109754;28;20695;-84
2022/04/14 09:54:12;;;;;;;17.50;14.57;;;18.40;89.90;;;;;;5109663;28;20661;-84
2022/04/14 09:56:47;;;;;;;21.97;14.83;;;18.60;90.60;;;;;;5109564;28;20623;-84
2022/04/14 09:59:16;;;;;;;16.87;15.10;;;18.80;90.90;;;;;;5109950;28;20723;-84
2022/04/14 10:01:44;;;;;;;18.13;16.13;;;19.10;90.70;;;;;;5109827;28;21157;-84
2022/04/14 10:04:30;;;;;;;19.83;15.27;;;19.20;89.20;;;;;;5109161;28;20723;-84
2022/04/14 10:07:08;;;;;;;19.30;15.70;;;19.20;89.70;;;;;;5109423;28;21479;-84
2022/04/14 10:09:39;;;;;;;18.43;16.17;;;19.00;88.80;;;;;;5109679;28;20965;-84
2022/04/14 10:12:30;;;;;;;16.53;14.70;;;19.40;91.30;;;;;;5109975;28;21173;-84
2022/04/14 10:15:03;;;;;;;19.43;14.20;;;19.30;88.60;;;;;;5109952;28;20674;-84
2022/04/14 10:17:32;;;;;;;24.47;16.53;;;19.40;87.80;;;;;;5109470;28;20623;-84
2022/04/14 10:19:59;;;;;;;17.10;15.10;;;19.50;87.20;;;;;;5109967;28;20689;-85
2022/04/14 10:22:26;;;;;;;16.57;14.97;;;19.40;85.80;;;;;;5109676;28;20716;-85
2022/04/14 10:24:55;;;;;;;15.73;13.80;;;19.30;86.50;;;;;;5109827;28;20647;-84
2022/04/14 10:27:22;;;;;;;15.10;13.50;;;19.30;87.70;;;;;;5108966;28;21451;-85
2022/04/14 10:29:50;;;;;;;14.57;13.07;;;19.60;87.10;;;;;;5109712;28;20616;-84
2022/04/14 10:32:17;;;;;;;14.33;12.10;;;19.70;82.60;;;;;;5109684;28;21090;-84
2022/04/14 10:34:46;;;;;;;21.60;14.30;;;19.50;82.10;;;;;;5109868;28;20663;-84
2022/04/14 10:37:20;;;;;;;14.73;12.90;;;19.60;81.70;;;;;;5108624;28;20611;-84
2022/04/14 10:39:49;;;;;;;14.20;12.63;;;20.00;90.20;;;;;;5108613;28;20736;-84
2022/04/14 10:42:24;;;;;;;12.80;11.50;;;19.80;85.60;;;;;;5108401;28;20621;-84
2022/04/14 10:44:53;;;;;;;13.63;12.17;;;19.80;80.00;;;;;;5109309;28;20833;-84
2022/04/14 10:47:54;;;;;;;13.20;11.93;;;19.80;86.20;;;;;;5108387;28;20643;-84
2022/04/14 10:50:22;;;;;;;14.73;13.27;;;19.90;81.30;;;;;;5109523;28;20613;-84
2022/04/14 10:53:08;;;;;;;13.17;11.00;;;20.00;79.40;;;;;;5109852;28;20655;-84
2022/04/14 10:55:37;;;;;;;15.03;12.27;;;20.20;81.00;;;;;;5108291;28;20655;-84
2022/04/14 10:58:05;;;;;;;20.33;12.17;;;20.40;78.50;;;;;;5108919;28;21198;-84
2022/04/14 11:00:37;;;;;;;15.70;13.90;;;20.30;79.60;;;;;;5108333;28;20644;-84
2022/04/14 11:03:08;;;;;;;12.73;11.40;;;20.20;78.20;;;;;;5108879;28;20722;-84
2022/04/14 11:05:53;;;;;;;18.17;11.97;;;20.40;79.10;;;;;;5108065;28;20619;-84
2022/04/14 11:08:27;;;;;;;14.37;12.93;;;20.70;79.30;;;;;;5108790;28;20699;-85
2022/04/14 11:11:10;;;;;;;14.50;12.77;;;20.80;76.20;;;;;;5108413;28;21227;-85
2022/04/14 11:14:12;;;;;;;15.87;12.60;;;20.70;77.40;;;;;;5108748;28;20619;-85
2022/04/14 11:16:47;;;;;;;15.67;11.00;;;20.60;75.40;;;;;;5044680;28;21293;-84
2022/04/14 11:19:25;;;;;;;13.37;11.30;;;20.40;72.80;;;;;;5045120;28;20736;-85
2022/04/14 11:22:04;;;;;;;15.60;13.73;;;20.50;73.60;;;;;;5082001;28;20718;-85
2022/04/14 11:24:41;;;;;;;19.00;17.00;;;20.70;74.50;;;;;;5108554;28;21207;-85
2022/04/14 11:27:14;;;;;;;19.43;15.37;;;20.50;76.90;;;;;;5108044;28;20623;-84
2022/04/14 11:29:44;;;;;;;16.67;14.97;;;20.90;80.10;;;;;;5107946;28;20615;-84
2022/04/14 11:32:11;;;;;;;20.57;15.90;;;21.30;78.40;;;;;;5108720;28;21161;-85
2022/04/14 11:34:39;;;;;;;26.03;17.37;;;21.30;78.50;;;;;;5108634;28;20647;-85
2022/04/14 11:37:41;;;;;;;15.30;13.70;;;21.20;76.40;;;;;;5106668;28;20639;-84
2022/04/14 11:40:13;;;;;;;16.90;14.37;;;21.50;77.50;;;;;;5107689;28;21238;-85
2022/04/14 11:42:41;;;;;;;17.13;13.43;;;21.70;75.60;;;;;;5108446;28;21257;-85
2022/04/14 11:45:10;;;;;;;17.20;14.47;;;21.80;74.70;;;;;;5107930;28;20752;-85
2022/04/14 11:47:39;;;;;;;15.00;13.60;;;21.90;73.00;;;;;;5108133;28;20626;-84
2022/04/14 11:50:07;;;;;;;17.77;14.20;;;22.10;73.30;;;;;;5108494;28;21240;-84
2022/04/14 11:52:34;;;;;;;17.53;15.93;;;22.00;71.60;;;;;;5107919;28;20637;-84
2022/04/14 11:55:01;;;;;;;15.37;13.87;;;21.90;72.10;;;;;;5111978;28;20705;-85
2022/04/14 11:57:31;;;;;;;15.27;13.63;;;22.70;72.90;;;;;;5111943;28;20721;-85
2022/04/14 12:00:10;;;;;;;14.30;12.90;;;23.10;69.80;;;;;;5112073;28;20730;-86
2022/04/14 12:02:38;;;;;;;14.70;13.30;;;23.60;69.30;;;;;;5112053;28;20611;-85
2022/04/14 12:05:06;;;;;;;13.83;12.53;;;24.40;67.10;;;;;;5111196;28;20712;-86
2022/04/14 12:07:34;;;;;;;15.50;13.50;;;24.20;65.70;;;;;;5112116;28;20619;-85
2022/04/14 12:10:02;;;;;;;12.97;11.87;;;25.30;63.30;;;;;;5112118;28;20719;-85
2022/04/14 12:12:32;;;;;;;15.37;13.97;;;25.20;63.30;;;;;;5112112;27;21238;-85
2022/04/14 12:14:59;;;;;;;16.57;13.83;;;25.50;63.30;;;;;;5111999;28;20651;-85
2022/04/14 12:17:27;;;;;;;15.27;13.87;;;25.70;62.10;;;;;;5110994;28;21161;-85
2022/04/14 12:19:56;;;;;;;16.37;14.93;;;26.20;61.80;;;;;;5112409;27;20684;-85
2022/04/14 12:22:24;;;;;;;17.90;16.37;;;25.60;60.50;;;;;;5111968;28;20715;-85
2022/04/14 12:24:53;;;;;;;17.67;16.00;;;24.70;63.00;;;;;;5112124;28;20650;-85
2022/04/14 12:27:23;;;;;;;17.47;15.87;;;23.50;66.40;;;;;;5111090;28;20604;-85
2022/04/14 12:29:50;;;;;;;17.80;16.20;;;22.80;68.50;;;;;;5112254;28;20618;-85
2022/04/14 12:32:18;;;;;;;18.03;16.37;;;22.70;67.10;;;;;;5111407;28;21310;-85
2022/04/14 12:34:47;;;;;;;17.60;15.40;;;22.20;67.80;;;;;;5112279;28;20683;-85
2022/04/14 12:37:18;;;;;;;16.17;14.57;;;22.00;68.10;;;;;;5110029;28;21027;-85
2022/04/14 12:39:59;;;;;;;15.83;14.33;;;22.10;70.60;;;;;;5112668;28;20616;-85
2022/04/14 12:42:28;;;;;;;14.40;13.00;;;23.20;70.70;;;;;;5111527;28;20623;-85